createdAt,value
2019-01-30T00:00:35.549Z,100180.87
2019-01-30T00:02:46.528Z,100189.88
2019-01-30T00:04:52.878Z,100185.16
2019-01-30T00:06:59.168Z,100185.19
2019-01-30T00:09:07.968Z,100189.48
2019-01-30T00:11:14.031Z,100186.05
2019-01-30T00:13:21.408Z,100186.48
2019-01-30T00:15:28.408Z,100187.75
2019-01-30T00:17:34.548Z,100186.03
2019-01-30T00:19:41.168Z,100189.48
2019-01-30T00:21:49.108Z,100183.44
2019-01-30T00:23:55.728Z,100185.59
2019-01-30T00:26:02.352Z,100181.73
2019-01-30T00:28:09.808Z,100178.30
2019-01-30T00:30:27.549Z,100179.61
2019-01-30T00:32:35.208Z,100181.75
2019-01-30T00:34:42.109Z,100181.73
2019-01-30T00:36:48.729Z,100184.31
2019-01-30T00:38:58.070Z,100182.17
2019-01-30T00:41:04.968Z,100185.17
2019-01-30T00:43:12.708Z,100184.75
2019-01-30T00:45:21.168Z,100186.91
2019-01-30T00:47:27.708Z,100188.22
2019-01-30T00:49:33.928Z,100185.19
2019-01-30T00:51:40.228Z,100186.92
2019-01-30T00:53:46.808Z,100189.51
2019-01-30T00:55:53.230Z,100187.77
2019-01-30T00:57:59.469Z,100195.50
2019-01-30T01:00:14.579Z,100192.06
2019-01-30T01:02:18.108Z,100188.18
2019-01-30T01:04:26.448Z,100179.59
2019-01-30T01:06:33.068Z,100183.91
2019-01-30T01:08:39.348Z,100181.33
2019-01-30T01:10:45.870Z,100181.33
2019-01-30T01:12:52.188Z,100178.73
2019-01-30T01:14:58.348Z,100180.47
2019-01-30T01:17:05.089Z,100177.04
2019-01-30T01:19:12.688Z,100175.75
2019-01-30T01:21:20.729Z,100186.92
2019-01-30T01:23:27.415Z,100181.30
2019-01-30T01:25:35.089Z,100182.59
2019-01-30T01:27:42.131Z,100177.88
2019-01-30T01:29:49.948Z,100182.61
2019-01-30T01:31:57.270Z,100178.73
2019-01-30T01:34:03.632Z,100177.45
2019-01-30T01:36:10.388Z,100176.56
2019-01-30T01:38:17.148Z,100174.87
2019-01-30T01:40:23.568Z,100168.83
2019-01-30T01:42:30.317Z,100167.99
2019-01-30T01:44:36.648Z,100166.66
2019-01-30T01:46:42.929Z,100164.52
2019-01-30T01:48:49.449Z,100158.51
2019-01-30T01:50:55.880Z,100155.47
2019-01-30T01:53:02.168Z,100156.77
2019-01-30T01:55:11.595Z,100155.47
2019-01-30T01:57:18.108Z,100147.71
2019-01-30T01:59:25.108Z,100144.70
2019-01-30T02:01:31.456Z,100142.94
2019-01-30T02:03:37.848Z,100140.78
2019-01-30T02:05:44.268Z,100139.86
2019-01-30T02:07:50.948Z,100141.56
2019-01-30T02:09:57.868Z,100141.92
2019-01-30T02:12:04.328Z,100146.19
2019-01-30T02:14:10.869Z,100145.24
2019-01-30T02:16:18.940Z,100144.31
2019-01-30T02:18:25.676Z,100144.69
2019-01-30T02:20:34.590Z,100146.78
2019-01-30T02:22:41.230Z,100147.16
2019-01-30T02:24:49.428Z,100140.25
2019-01-30T02:26:55.872Z,100138.05
2019-01-30T02:29:02.529Z,100139.75
2019-01-30T02:31:11.949Z,100140.54
2019-01-30T02:33:18.988Z,100141.81
2019-01-30T02:35:25.509Z,100145.63
2019-01-30T02:37:31.815Z,100143.84
2019-01-30T02:39:38.168Z,100149.37
2019-01-30T02:41:45.069Z,100142.92
2019-01-30T02:43:53.171Z,100141.61
2019-01-30T02:45:59.188Z,100144.16
2019-01-30T02:48:05.648Z,100135.99
2019-01-30T02:50:16.750Z,100139.41
2019-01-30T02:52:24.029Z,100143.23
2019-01-30T02:54:31.649Z,100144.91
2019-01-30T02:56:38.449Z,100144.44
2019-01-30T02:58:44.609Z,100151.29
2019-01-30T03:01:11.334Z,100144.84
2019-01-30T03:03:20.448Z,100144.39
2019-01-30T03:05:26.768Z,100149.50
2019-01-30T03:07:33.821Z,100149.92
2019-01-30T03:09:40.390Z,100151.17
2019-01-30T03:11:46.775Z,100152.46
2019-01-30T03:13:53.071Z,100156.77
2019-01-30T03:15:59.428Z,100157.66
2019-01-30T03:18:05.608Z,100153.89
2019-01-30T03:20:16.009Z,100150.89
2019-01-30T03:22:22.268Z,100159.53
2019-01-30T03:24:28.670Z,100151.88
2019-01-30T03:26:35.828Z,100152.73
2019-01-30T03:28:42.109Z,100148.94
2019-01-30T03:30:50.190Z,100150.22
2019-01-30T03:32:57.910Z,100156.17
2019-01-30T03:35:04.689Z,100154.45
2019-01-30T03:37:11.480Z,100150.98
2019-01-30T03:39:19.529Z,100156.55
2019-01-30T03:41:25.889Z,100163.39
2019-01-30T03:43:33.400Z,100163.84
2019-01-30T03:45:39.968Z,100164.73
2019-01-30T03:47:47.112Z,100173.73
2019-01-30T03:49:53.490Z,100165.57
2019-01-30T03:52:00.368Z,100166.83
2019-01-30T03:54:07.008Z,100160.80
2019-01-30T03:56:13.408Z,100160.73
2019-01-30T03:58:19.489Z,100157.23
2019-01-30T04:00:27.548Z,100157.64
2019-01-30T04:02:33.849Z,100152.44
2019-01-30T04:04:40.480Z,100159.63
2019-01-30T04:06:46.848Z,100157.03
2019-01-30T04:08:53.208Z,100153.53
2019-01-30T04:11:02.588Z,100160.80
2019-01-30T04:13:09.208Z,100159.86
2019-01-30T04:15:17.193Z,100164.10
2019-01-30T04:17:23.557Z,100164.90
2019-01-30T04:19:30.388Z,100164.00
2019-01-30T04:21:37.149Z,100162.72
2019-01-30T04:23:43.668Z,100163.97
2019-01-30T04:25:49.828Z,100166.08
2019-01-30T04:27:56.088Z,100165.22
2019-01-30T04:30:03.670Z,100169.45
2019-01-30T04:32:11.208Z,100169.83
2019-01-30T04:34:17.550Z,100167.27
2019-01-30T04:36:25.188Z,100162.13
2019-01-30T04:38:35.189Z,100159.63
2019-01-30T04:40:41.868Z,100166.05
2019-01-30T04:42:48.434Z,100165.14
2019-01-30T04:44:54.690Z,100171.56
2019-01-30T04:47:01.948Z,100168.09
2019-01-30T04:49:09.556Z,100171.08
2019-01-30T04:51:16.691Z,100172.78
2019-01-30T04:53:23.015Z,100169.75
2019-01-30T04:55:29.331Z,100167.61
2019-01-30T04:57:35.929Z,100172.74
2019-01-30T04:59:43.794Z,100176.22
2019-01-30T05:01:50.304Z,100170.62
2019-01-30T05:03:56.508Z,100172.74
2019-01-30T05:06:04.533Z,100169.34
2019-01-30T05:08:10.808Z,100170.13
2019-01-30T05:10:17.589Z,100166.73
2019-01-30T05:12:25.711Z,100162.81
2019-01-30T05:14:32.048Z,100171.80
2019-01-30T05:16:39.630Z,100171.34
2019-01-30T05:18:47.329Z,100164.05
2019-01-30T05:20:53.851Z,100173.68
2019-01-30T05:23:00.150Z,100170.70
2019-01-30T05:25:09.169Z,100171.81
2019-01-30T05:27:18.259Z,100167.64
2019-01-30T05:29:24.568Z,100172.81
2019-01-30T05:31:30.830Z,100172.42
2019-01-30T05:33:37.474Z,100170.88
2019-01-30T05:35:43.688Z,100169.14
2019-01-30T05:37:51.430Z,100173.36
2019-01-30T05:39:58.149Z,100175.31
2019-01-30T05:42:04.387Z,100171.01
2019-01-30T05:44:10.648Z,100165.97
2019-01-30T05:46:16.812Z,100174.90
2019-01-30T05:48:23.071Z,100173.96
2019-01-30T05:50:29.376Z,100178.13
2019-01-30T05:52:35.888Z,100179.72
2019-01-30T05:54:42.691Z,100180.03
2019-01-30T05:56:49.128Z,100185.05
2019-01-30T05:58:55.808Z,100186.26
2019-01-30T06:01:04.211Z,100187.47
2019-01-30T06:03:11.376Z,100185.27
2019-01-30T06:05:23.048Z,100187.76
2019-01-30T06:07:31.848Z,100186.44
2019-01-30T06:09:38.528Z,100183.83
2019-01-30T06:11:44.713Z,100188.50
2019-01-30T06:13:51.609Z,100190.20
2019-01-30T06:15:58.048Z,100182.47
2019-01-30T06:18:04.779Z,100192.36
2019-01-30T06:20:18.372Z,100195.34
2019-01-30T06:22:24.869Z,100195.75
2019-01-30T06:24:31.169Z,100195.70
2019-01-30T06:26:37.488Z,100197.81
2019-01-30T06:28:44.688Z,100193.92
2019-01-30T06:30:52.628Z,100190.91
2019-01-30T06:33:00.568Z,100193.47
2019-01-30T06:37:41.850Z,100197.36
2019-01-30T06:39:48.308Z,100197.31
2019-01-30T06:41:54.728Z,100201.58
2019-01-30T06:44:01.179Z,100201.99
2019-01-30T06:46:08.008Z,100203.69
2019-01-30T06:48:14.768Z,100192.92
2019-01-30T06:50:21.268Z,100206.21
2019-01-30T06:52:27.768Z,100199.39
2019-01-30T06:54:34.205Z,100201.53
2019-01-30T06:56:40.728Z,100196.41
2019-01-30T06:58:47.607Z,100190.44
2019-01-30T07:00:53.888Z,100194.42
2019-01-30T07:03:01.128Z,100198.98
2019-01-30T07:05:08.237Z,100200.05
2019-01-30T07:07:14.712Z,100196.05
2019-01-30T07:09:21.149Z,100193.89
2019-01-30T07:11:27.769Z,100200.61
2019-01-30T07:13:34.408Z,100203.03
2019-01-30T07:15:40.827Z,100205.56
2019-01-30T07:17:47.169Z,100202.12
2019-01-30T07:25:11.511Z,100201.59
2019-01-30T07:27:18.530Z,100210.61
2019-01-30T07:29:24.689Z,100208.05
2019-01-30T07:31:31.569Z,100212.80
2019-01-30T07:33:38.588Z,100217.95
2019-01-30T07:35:45.609Z,100215.83
2019-01-30T07:37:52.249Z,100215.00
2019-01-30T07:39:58.648Z,100213.27
2019-01-30T07:42:05.231Z,100216.73
2019-01-30T07:44:11.369Z,100217.65
2019-01-30T07:46:17.649Z,100214.25
2019-01-30T07:48:27.179Z,100215.53
2019-01-30T07:50:31.973Z,100213.01
2019-01-30T07:52:38.449Z,100214.75
2019-01-30T07:54:45.709Z,100217.80
2019-01-30T07:56:51.911Z,100214.82
2019-01-30T07:58:57.994Z,100208.85
2019-01-30T08:01:04.568Z,100220.03
2019-01-30T08:03:11.309Z,100213.64
2019-01-30T08:05:18.433Z,100216.25
2019-01-30T08:07:27.761Z,100215.88
2019-01-30T08:09:35.148Z,100216.78
2019-01-30T08:11:43.089Z,100218.97
2019-01-30T08:13:49.712Z,100222.48
2019-01-30T08:15:56.208Z,100221.26
2019-01-30T08:18:02.644Z,100224.31
2019-01-30T08:20:13.169Z,100214.91
2019-01-30T08:22:19.827Z,100217.51
2019-01-30T08:24:28.187Z,100220.56
2019-01-30T08:26:34.896Z,100221.05
2019-01-30T08:28:41.533Z,100223.20
2019-01-30T08:30:49.761Z,100226.70
2019-01-30T08:33:04.051Z,100226.73
2019-01-30T08:35:06.229Z,100223.35
2019-01-30T08:37:13.887Z,100225.12
2019-01-30T08:39:21.509Z,100219.17
2019-01-30T08:41:27.918Z,100223.92
2019-01-30T08:43:37.017Z,100219.64
2019-01-30T08:45:43.828Z,100219.22
2019-01-30T08:47:52.048Z,100219.70
2019-01-30T08:49:59.449Z,100229.18
2019-01-30T08:52:06.409Z,100223.67
2019-01-30T08:54:13.429Z,100224.98
2019-01-30T08:56:19.970Z,100231.02
2019-01-30T08:58:26.249Z,100230.21
2019-01-30T09:00:32.511Z,100229.81
2019-01-30T09:02:38.889Z,100232.44
2019-01-30T09:04:46.793Z,100230.31
2019-01-30T09:06:53.528Z,100228.19
2019-01-30T09:09:00.828Z,100231.67
2019-01-30T09:11:09.271Z,100233.48
2019-01-30T09:13:15.811Z,100238.67
2019-01-30T09:15:24.849Z,100233.99
2019-01-30T09:17:31.508Z,100234.04
2019-01-30T09:19:37.808Z,100235.33
2019-01-30T09:21:45.170Z,100237.05
2019-01-30T09:23:51.549Z,100230.68
2019-01-30T09:25:58.036Z,100236.31
2019-01-30T09:28:05.530Z,100235.88
2019-01-30T09:30:25.230Z,100233.80
2019-01-30T09:32:33.452Z,100230.39
2019-01-30T09:34:39.901Z,100236.02
2019-01-30T09:36:46.269Z,100234.33
2019-01-30T09:38:52.875Z,100232.21
2019-01-30T09:40:59.133Z,100232.27
2019-01-30T09:43:05.652Z,100235.28
2019-01-30T09:45:17.382Z,100233.58
2019-01-30T09:47:23.649Z,100233.61
2019-01-30T09:49:30.109Z,100225.02
2019-01-30T09:51:36.716Z,100230.20
2019-01-30T09:53:43.528Z,100226.39
2019-01-30T09:55:49.948Z,100219.95
2019-01-30T09:57:57.989Z,100221.70
2019-01-30T10:00:06.349Z,100223.00
2019-01-30T10:02:12.648Z,100220.44
2019-01-30T10:04:19.575Z,100217.90
2019-01-30T10:06:27.448Z,100210.59
2019-01-30T10:08:34.110Z,100207.14
2019-01-30T10:10:44.172Z,100211.45
2019-01-30T10:12:50.389Z,100213.59
2019-01-30T10:14:57.299Z,100211.02
2019-01-30T10:17:03.812Z,100204.58
2019-01-30T10:19:10.512Z,100210.18
2019-01-30T10:21:17.089Z,100192.55
2019-01-30T10:23:23.797Z,100196.85
2019-01-30T10:25:30.248Z,100193.84
2019-01-30T10:27:36.848Z,100195.98
2019-01-30T10:29:43.168Z,100192.98
2019-01-30T10:31:52.168Z,100187.41
2019-01-30T10:33:58.689Z,100185.25
2019-01-30T10:36:05.488Z,100185.26
2019-01-30T10:38:11.608Z,100191.27
2019-01-30T10:40:24.808Z,100178.34
2019-01-30T10:42:32.850Z,100179.66
2019-01-30T10:44:39.075Z,100175.34
2019-01-30T10:46:47.088Z,100177.49
2019-01-30T10:48:53.629Z,100174.06
2019-01-30T10:51:00.009Z,100174.04
2019-01-30T10:53:08.116Z,100171.47
2019-01-30T10:55:21.728Z,100163.28
2019-01-30T10:57:30.851Z,100169.73
2019-01-30T10:59:38.451Z,100170.16
2019-01-30T11:01:45.788Z,100171.45
2019-01-30T11:03:57.350Z,100168.42
2019-01-30T11:06:04.068Z,100169.72
2019-01-30T11:08:10.569Z,100164.12
2019-01-30T11:10:21.532Z,100161.09
2019-01-30T11:12:27.969Z,100161.09
2019-01-30T11:14:34.508Z,100158.53
2019-01-30T11:16:40.791Z,100155.50
2019-01-30T11:18:48.908Z,100156.34
2019-01-30T11:20:55.149Z,100155.51
2019-01-30T11:23:01.348Z,100158.95
2019-01-30T11:25:12.668Z,100155.05
2019-01-30T11:27:19.548Z,100156.78
2019-01-30T11:29:25.867Z,100152.48
2019-01-30T11:31:32.769Z,100151.19
2019-01-30T11:33:38.808Z,100156.34
2019-01-30T11:35:45.887Z,100153.34
2019-01-30T11:37:52.249Z,100151.63
2019-01-30T11:39:58.552Z,100155.04
2019-01-30T11:42:05.810Z,100150.73
2019-01-30T11:44:13.048Z,100153.32
2019-01-30T11:46:19.469Z,100149.88
2019-01-30T11:48:25.916Z,100152.02
2019-01-30T11:50:33.116Z,100154.20
2019-01-30T11:52:39.329Z,100146.44
2019-01-30T11:54:46.868Z,100149.91
2019-01-30T11:56:53.388Z,100149.91
2019-01-30T11:59:06.024Z,100151.60
2019-01-30T12:01:13.888Z,100147.72
2019-01-30T12:03:21.831Z,100147.28
2019-01-30T12:05:29.149Z,100149.43
2019-01-30T12:07:35.349Z,100146.84
2019-01-30T12:09:43.009Z,100139.95
2019-01-30T12:11:49.588Z,100133.07
2019-01-30T12:13:55.855Z,100129.61
2019-01-30T12:16:03.514Z,100128.34
2019-01-30T12:18:10.349Z,100133.50
2019-01-30T12:20:17.256Z,100137.83
2019-01-30T12:22:26.169Z,100138.28
2019-01-30T12:24:32.888Z,100138.69
2019-01-30T12:26:39.680Z,100137.39
2019-01-30T12:28:45.948Z,100139.98
2019-01-30T12:30:52.349Z,100136.97
2019-01-30T12:32:58.687Z,100130.09
2019-01-30T12:35:06.652Z,100128.80
2019-01-30T12:37:14.064Z,100128.39
2019-01-30T12:39:20.149Z,100132.69
2019-01-30T12:41:26.347Z,100127.52
2019-01-30T12:43:32.596Z,100125.37
2019-01-30T12:45:40.535Z,100122.35
2019-01-30T12:47:47.212Z,100130.56
2019-01-30T12:49:53.608Z,100127.98
2019-01-30T12:52:00.076Z,100122.36
2019-01-30T12:54:06.507Z,100117.63
2019-01-30T12:56:13.149Z,100115.05
2019-01-30T12:58:21.339Z,100110.33
2019-01-30T13:00:40.450Z,100118.92
2019-01-30T13:02:47.627Z,100117.63
2019-01-30T13:04:55.216Z,100115.05
2019-01-30T13:07:01.849Z,100106.88
2019-01-30T13:09:09.388Z,100108.16
2019-01-30T13:11:15.728Z,100115.91
2019-01-30T13:13:22.067Z,100117.63
2019-01-30T13:15:29.873Z,100121.08
2019-01-30T13:17:36.650Z,100117.20
2019-01-30T13:19:42.868Z,100119.78
2019-01-30T13:21:50.026Z,100117.64
2019-01-30T13:23:56.388Z,100113.77
2019-01-30T13:26:04.491Z,100118.09
2019-01-30T13:28:10.888Z,100117.64
2019-01-30T13:30:30.348Z,100119.38
2019-01-30T13:32:37.112Z,100115.51
2019-01-30T13:34:48.985Z,100109.03
2019-01-30T13:36:51.752Z,100111.17
2019-01-30T13:38:58.583Z,100111.63
2019-01-30T13:41:06.468Z,100116.34
2019-01-30T13:43:12.670Z,100109.05
2019-01-30T13:45:20.248Z,100114.64
2019-01-30T13:47:28.088Z,100108.63
2019-01-30T13:49:34.511Z,100106.90
2019-01-30T13:51:40.729Z,100106.05
2019-01-30T13:53:48.841Z,100106.03
2019-01-30T13:55:56.540Z,100107.78
2019-01-30T13:58:05.375Z,100105.21
2019-01-30T14:00:33.329Z,100109.08
2019-01-30T14:02:40.145Z,100104.77
2019-01-30T14:04:47.391Z,100109.07
2019-01-30T14:06:56.568Z,100103.50
2019-01-30T14:09:03.167Z,100102.64
2019-01-30T14:11:12.298Z,100102.19
2019-01-30T14:13:20.348Z,100108.66
2019-01-30T14:15:29.968Z,100104.78
2019-01-30T14:17:36.444Z,100106.91
2019-01-30T14:19:42.984Z,100106.91
2019-01-30T14:21:49.215Z,100104.32
2019-01-30T14:23:57.171Z,100100.47
2019-01-30T14:26:03.630Z,100109.05
2019-01-30T14:28:10.228Z,100109.91
2019-01-30T14:30:33.727Z,100112.06
2019-01-30T14:32:40.249Z,100108.21
2019-01-30T14:34:47.043Z,100106.50
2019-01-30T14:36:53.728Z,100109.50
2019-01-30T14:39:00.242Z,100111.22
2019-01-30T14:41:08.567Z,100114.22
2019-01-30T14:43:17.635Z,100111.22
2019-01-30T14:45:24.655Z,100113.39
2019-01-30T14:47:31.323Z,100109.52
2019-01-30T14:49:37.773Z,100104.77
2019-01-30T14:51:46.777Z,100109.50
2019-01-30T14:53:59.615Z,100101.35
2019-01-30T14:56:09.335Z,100105.64
2019-01-30T14:58:19.383Z,100098.77
2019-01-30T15:00:31.147Z,100102.64
2019-01-30T15:02:39.003Z,100093.59
2019-01-30T15:04:45.368Z,100095.31
2019-01-30T15:06:53.651Z,100090.59
2019-01-30T15:09:01.250Z,100094.87
2019-01-30T15:11:07.859Z,100097.47
2019-01-30T15:13:14.251Z,100090.58
2019-01-30T15:15:26.131Z,100088.42
2019-01-30T15:17:32.593Z,100092.30
2019-01-30T15:19:39.273Z,100082.84
2019-01-30T15:21:47.521Z,100081.98
2019-01-30T15:23:54.509Z,100078.09
2019-01-30T15:26:00.768Z,100081.11
2019-01-30T15:28:08.668Z,100084.98
2019-01-30T15:30:29.189Z,100081.10
2019-01-30T15:32:36.111Z,100081.95
2019-01-30T15:34:42.249Z,100090.09
2019-01-30T15:36:48.388Z,100086.20
2019-01-30T15:38:55.248Z,100085.75
2019-01-30T15:41:02.017Z,100091.31
2019-01-30T15:43:08.609Z,100086.16
2019-01-30T15:45:18.884Z,100089.55
2019-01-30T15:47:25.577Z,100093.41
2019-01-30T15:49:32.390Z,100097.24
2019-01-30T15:51:39.888Z,100101.05
2019-01-30T15:53:46.415Z,100105.78
2019-01-30T15:55:52.871Z,100099.31
2019-01-30T15:58:06.851Z,100101.00
2019-01-30T16:00:35.928Z,100104.87
2019-01-30T16:02:42.758Z,100102.72
2019-01-30T16:04:51.332Z,100097.59
2019-01-30T16:06:58.001Z,100098.90
2019-01-30T16:09:06.328Z,100099.75
2019-01-30T16:11:12.976Z,100101.50
2019-01-30T16:13:19.848Z,100098.94
2019-01-30T16:15:42.469Z,100101.09
2019-01-30T16:17:48.949Z,100098.95
2019-01-30T16:19:55.851Z,100098.08
2019-01-30T16:22:03.461Z,100095.95
2019-01-30T16:24:09.908Z,100095.06
2019-01-30T16:26:17.948Z,100095.50
2019-01-30T16:28:24.570Z,100093.39
2019-01-30T16:30:31.376Z,100086.97
2019-01-30T16:32:39.688Z,100085.25
2019-01-30T16:34:47.369Z,100087.42
2019-01-30T16:36:54.068Z,100088.30
2019-01-30T16:39:01.096Z,100085.72
2019-01-30T16:41:08.908Z,100081.44
2019-01-30T16:43:16.988Z,100081.47
2019-01-30T16:45:30.134Z,100087.48
2019-01-30T16:47:36.729Z,100088.35
2019-01-30T16:49:43.469Z,100084.06
2019-01-30T16:51:50.129Z,100081.91
2019-01-30T16:53:56.728Z,100083.64
2019-01-30T16:56:02.988Z,100093.96
2019-01-30T16:58:09.757Z,100087.09
2019-01-30T17:00:20.409Z,100087.54
2019-01-30T17:02:27.290Z,100087.54
2019-01-30T17:04:33.956Z,100088.81
2019-01-30T17:06:43.699Z,100085.38
2019-01-30T17:08:50.869Z,100091.39
2019-01-30T17:10:57.357Z,100081.08
2019-01-30T17:13:04.329Z,100079.80
2019-01-30T17:15:15.468Z,100079.38
2019-01-30T17:17:22.308Z,100076.78
2019-01-30T17:19:29.049Z,100081.52
2019-01-30T17:21:36.288Z,100078.06
2019-01-30T17:23:43.428Z,100075.05
2019-01-30T17:25:49.968Z,100078.92
2019-01-30T17:27:56.650Z,100082.37
2019-01-30T17:30:03.377Z,100081.52
2019-01-30T17:32:10.073Z,100082.80
2019-01-30T17:34:17.167Z,100081.95
2019-01-30T17:36:23.849Z,100084.13
2019-01-30T17:38:30.579Z,100077.23
2019-01-30T17:40:37.356Z,100073.79
2019-01-30T17:42:44.108Z,100081.95
2019-01-30T17:44:51.248Z,100082.83
2019-01-30T17:46:57.935Z,100076.80
2019-01-30T17:49:04.768Z,100078.53
2019-01-30T17:51:11.428Z,100076.81
2019-01-30T17:53:18.171Z,100073.79
2019-01-30T17:55:26.217Z,100077.22
2019-01-30T17:57:33.268Z,100081.55
2019-01-30T17:59:40.068Z,100079.38
2019-01-30T18:01:46.816Z,100081.97
2019-01-30T18:03:53.508Z,100081.97
2019-01-30T18:06:00.169Z,100080.70
2019-01-30T18:08:07.068Z,100083.28
2019-01-30T18:10:17.747Z,100080.25
2019-01-30T18:12:24.209Z,100084.57
2019-01-30T18:14:32.296Z,100078.55
2019-01-30T18:16:39.068Z,100084.13
2019-01-30T18:18:45.948Z,100080.68
2019-01-30T18:20:52.829Z,100084.99
2019-01-30T18:23:01.588Z,100079.39
2019-01-30T18:25:13.308Z,100085.84
2019-01-30T18:27:19.948Z,100076.39
2019-01-30T18:29:26.928Z,100075.54
2019-01-30T18:31:34.869Z,100076.39
2019-01-30T18:33:42.089Z,100072.09
2019-01-30T18:35:49.348Z,100079.41
2019-01-30T18:37:56.468Z,100072.95
2019-01-30T18:40:03.759Z,100076.39
2019-01-30T18:42:10.436Z,100073.37
2019-01-30T18:44:19.390Z,100072.95
2019-01-30T18:46:29.089Z,100070.78
2019-01-30T18:48:36.209Z,100077.27
2019-01-30T18:50:45.672Z,100075.53
2019-01-30T18:52:51.828Z,100078.09
2019-01-30T18:54:59.169Z,100078.11
2019-01-30T18:57:06.048Z,100078.13
2019-01-30T18:59:12.929Z,100079.42
2019-01-30T19:01:19.857Z,100088.44
2019-01-30T19:03:29.472Z,100081.13
2019-01-30T19:05:36.991Z,100082.00
2019-01-30T19:07:44.405Z,100090.15
2019-01-30T19:09:50.880Z,100082.42
2019-01-30T19:11:57.988Z,100070.80
2019-01-30T19:14:04.668Z,100073.81
2019-01-30T19:16:11.154Z,100066.92
2019-01-30T19:18:20.148Z,100067.80
2019-01-30T19:20:43.048Z,100064.77
2019-01-30T19:22:50.374Z,100058.75
2019-01-30T19:24:57.135Z,100066.06
2019-01-30T19:27:03.893Z,100065.65
2019-01-30T19:29:11.033Z,100075.55
2019-01-30T19:31:17.892Z,100074.24
2019-01-30T19:33:25.840Z,100076.38
2019-01-30T19:35:32.620Z,100076.39
2019-01-30T19:37:39.659Z,100075.97
2019-01-30T19:39:46.813Z,100073.38
2019-01-30T19:41:53.545Z,100072.08
2019-01-30T19:44:00.654Z,100067.34
2019-01-30T19:46:07.832Z,100069.92
2019-01-30T19:48:15.373Z,100072.08
2019-01-30T19:50:28.052Z,100069.93
2019-01-30T19:52:35.032Z,100063.07
2019-01-30T19:54:41.773Z,100067.80
2019-01-30T19:56:49.072Z,100058.31
2019-01-30T19:58:56.212Z,100057.89
2019-01-30T20:01:03.633Z,100058.33
2019-01-30T20:03:15.613Z,100054.44
2019-01-30T20:05:22.388Z,100062.20
2019-01-30T20:07:29.248Z,100057.46
2019-01-30T20:09:35.868Z,100065.20
2019-01-30T20:11:43.528Z,100071.66
2019-01-30T20:13:50.171Z,100073.83
2019-01-30T20:15:57.107Z,100071.24
2019-01-30T20:18:04.011Z,100069.50
2019-01-30T20:20:21.333Z,100065.19
2019-01-30T20:22:29.368Z,100070.79
2019-01-30T20:24:37.280Z,100071.23
2019-01-30T20:26:44.477Z,100069.52
2019-01-30T20:28:51.392Z,100072.50
2019-01-30T20:31:01.113Z,100070.78
2019-01-30T20:33:07.037Z,100066.06
2019-01-30T20:35:13.870Z,100070.38
2019-01-30T20:37:26.365Z,100070.78
2019-01-30T20:39:29.068Z,100066.48
2019-01-30T20:41:35.798Z,100065.61
2019-01-30T20:43:44.267Z,100066.91
2019-01-30T20:45:51.109Z,100075.95
2019-01-30T20:47:58.188Z,100072.95
2019-01-30T20:50:08.010Z,100075.94
2019-01-30T20:52:14.772Z,100078.52
2019-01-30T20:54:22.473Z,100071.22
2019-01-30T20:56:28.991Z,100082.84
2019-01-30T20:58:35.828Z,100081.09
2019-01-30T21:00:42.731Z,100084.55
2019-01-30T21:02:49.610Z,100079.38
2019-01-30T21:04:57.209Z,100082.41
2019-01-30T21:07:03.989Z,100078.53
2019-01-30T21:09:10.729Z,100072.51
2019-01-30T21:11:18.728Z,100068.63
2019-01-30T21:13:25.388Z,100071.63
2019-01-30T21:15:32.828Z,100069.47
2019-01-30T21:17:39.629Z,100069.91
2019-01-30T21:19:46.517Z,100069.48
2019-01-30T21:21:53.350Z,100067.77
2019-01-30T21:24:00.023Z,100073.36
2019-01-30T21:26:06.969Z,100062.18
2019-01-30T21:28:13.588Z,100065.62
2019-01-30T21:30:28.057Z,100060.87
2019-01-30T21:32:34.988Z,100057.87
2019-01-30T21:34:41.489Z,100058.70
2019-01-30T21:36:48.291Z,100066.91
2019-01-30T21:38:54.957Z,100054.42
2019-01-30T21:41:01.611Z,100052.27
2019-01-30T21:43:09.534Z,100052.70
2019-01-30T21:45:25.525Z,100054.42
2019-01-30T21:47:32.670Z,100053.98
2019-01-30T21:49:39.288Z,100053.55
2019-01-30T21:51:45.749Z,100054.83
2019-01-30T21:53:52.389Z,100053.98
2019-01-30T21:55:58.627Z,100052.69
2019-01-30T21:58:05.435Z,100051.41
2019-01-30T22:00:25.089Z,100057.42
2019-01-30T22:02:31.469Z,100053.13
2019-01-30T22:04:39.934Z,100050.11
2019-01-30T22:06:47.228Z,100047.11
2019-01-30T22:08:53.755Z,100049.69
2019-01-30T22:11:00.337Z,100045.36
2019-01-30T22:13:06.667Z,100048.81
2019-01-30T22:15:16.330Z,100036.33
2019-01-30T22:17:23.508Z,100042.34
2019-01-30T22:19:30.009Z,100042.34
2019-01-30T22:21:36.308Z,100046.66
2019-01-30T22:23:43.214Z,100043.20
2019-01-30T22:25:50.968Z,100040.61
2019-01-30T22:27:58.237Z,100038.47
2019-01-30T22:30:06.877Z,100043.63
2019-01-30T22:32:13.308Z,100036.31
2019-01-30T22:34:19.809Z,100037.18
2019-01-30T22:36:26.169Z,100031.56
2019-01-30T22:38:32.469Z,100030.28
2019-01-30T22:40:39.568Z,100029.86
2019-01-30T22:42:46.089Z,100020.37
2019-01-30T22:44:54.428Z,100028.12
2019-01-30T22:47:01.091Z,100029.42
2019-01-30T22:49:07.448Z,100023.39
2019-01-30T22:51:14.308Z,100021.67
2019-01-30T22:53:22.588Z,100021.67
2019-01-30T22:55:29.051Z,100021.21
2019-01-30T22:57:36.148Z,100024.68
2019-01-30T22:59:42.408Z,100024.24
2019-01-30T23:01:50.048Z,100023.79
2019-01-30T23:04:15.692Z,100020.36
2019-01-30T23:06:36.008Z,100019.94
2019-01-30T23:08:53.988Z,100023.36
2019-01-30T23:11:19.909Z,100018.20
2019-01-30T23:13:33.768Z,100021.22
2019-01-30T23:16:00.708Z,100014.77
2019-01-30T23:18:38.421Z,100010.42
2019-01-30T23:20:55.488Z,100010.44
2019-01-30T23:23:35.328Z,100013.86
2019-01-30T23:26:09.909Z,100020.78
2019-01-30T23:28:27.668Z,100019.46
2019-01-30T23:30:47.468Z,100017.31
2019-01-30T23:33:17.147Z,100013.86
2019-01-30T23:35:40.328Z,100017.31
2019-01-30T23:37:52.803Z,100016.44
2019-01-30T23:40:24.767Z,100019.48
2019-01-30T23:43:02.564Z,100012.56
2019-01-30T23:45:35.290Z,100010.00
2019-01-30T23:47:58.063Z,100013.86
2019-01-30T23:50:32.888Z,100010.42
2019-01-30T23:53:01.748Z,100006.55
2019-01-30T23:55:12.629Z,100007.39
2019-01-30T23:57:45.892Z,100009.97
